sensor_id;sensor_type;location;lat;lon;timestamp;P1;durP1;ratioP1;P2;durP2;ratioP2
51298;SDS011;37382;45.192;9.790;2023-05-23T00:02:05;27.20;;;20.90;;
51298;SDS011;37382;45.192;9.790;2023-05-23T00:04:35;26.83;;;21.25;;
51298;SDS011;37382;45.192;9.790;2023-05-23T00:07:03;32.15;;;21.23;;
51298;SDS011;37382;45.192;9.790;2023-05-23T00:09:31;30.85;;;21.15;;
51298;SDS011;37382;45.192;9.790;2023-05-23T00:11:59;27.02;;;19.90;;
51298;SDS011;37382;45.192;9.790;2023-05-23T00:14:27;26.58;;;19.52;;
51298;SDS011;37382;45.192;9.790;2023-05-23T00:16:57;29.35;;;19.00;;
51298;SDS011;37382;45.192;9.790;2023-05-23T00:19:26;26.08;;;18.98;;
51298;SDS011;37382;45.192;9.790;2023-05-23T00:21:53;31.85;;;19.38;;
51298;SDS011;37382;45.192;9.790;2023-05-23T00:24:24;23.52;;;18.15;;
51298;SDS011;37382;45.192;9.790;2023-05-23T00:26:53;30.17;;;18.65;;
51298;SDS011;37382;45.192;9.790;2023-05-23T00:29:21;25.70;;;18.35;;
51298;SDS011;37382;45.192;9.790;2023-05-23T00:31:49;23.52;;;18.30;;
51298;SDS011;37382;45.192;9.790;2023-05-23T00:34:16;35.03;;;18.90;;
51298;SDS011;37382;45.192;9.790;2023-05-23T00:36:44;21.08;;;18.13;;
51298;SDS011;37382;45.192;9.790;2023-05-23T00:39:16;20.83;;;17.92;;
51298;SDS011;37382;45.192;9.790;2023-05-23T00:41:48;26.02;;;17.90;;
51298;SDS011;37382;45.192;9.790;2023-05-23T00:44:19;24.33;;;17.45;;
51298;SDS011;37382;45.192;9.790;2023-05-23T00:46:50;32.42;;;18.45;;
51298;SDS011;37382;45.192;9.790;2023-05-23T00:49:21;21.85;;;17.05;;
51298;SDS011;37382;45.192;9.790;2023-05-23T00:51:50;22.50;;;16.60;;
51298;SDS011;37382;45.192;9.790;2023-05-23T00:54:25;22.05;;;17.38;;
51298;SDS011;37382;45.192;9.790;2023-05-23T00:56:57;27.40;;;16.83;;
51298;SDS011;37382;45.192;9.790;2023-05-23T00:59:25;24.33;;;17.35;;
51298;SDS011;37382;45.192;9.790;2023-05-23T01:01:53;24.75;;;17.67;;
51298;SDS011;37382;45.192;9.790;2023-05-23T01:04:23;22.30;;;17.35;;
51298;SDS011;37382;45.192;9.790;2023-05-23T01:06:53;23.92;;;17.38;;
51298;SDS011;37382;45.192;9.790;2023-05-23T01:09:22;25.05;;;17.17;;
51298;SDS011;37382;45.192;9.790;2023-05-23T01:17:36;18.88;;;15.70;;
51298;SDS011;37382;45.192;9.790;2023-05-23T01:20:12;35.50;;;17.90;;
51298;SDS011;37382;45.192;9.790;2023-05-23T01:25:51;19.40;;;16.70;;
51298;SDS011;37382;45.192;9.790;2023-05-23T01:28:30;21.00;;;16.83;;
51298;SDS011;37382;45.192;9.790;2023-05-23T01:31:03;18.77;;;15.70;;
51298;SDS011;37382;45.192;9.790;2023-05-23T01:33:35;22.35;;;16.45;;
51298;SDS011;37382;45.192;9.790;2023-05-23T01:36:05;23.67;;;17.13;;
51298;SDS011;37382;45.192;9.790;2023-05-23T01:38:34;23.25;;;17.30;;
51298;SDS011;37382;45.192;9.790;2023-05-23T01:41:02;24.25;;;16.83;;
51298;SDS011;37382;45.192;9.790;2023-05-23T01:43:30;25.55;;;17.48;;
51298;SDS011;37382;45.192;9.790;2023-05-23T01:45:59;29.65;;;16.90;;
51298;SDS011;37382;45.192;9.790;2023-05-23T01:48:27;22.42;;;17.33;;
51298;SDS011;37382;45.192;9.790;2023-05-23T01:50:57;20.13;;;16.58;;
51298;SDS011;37382;45.192;9.790;2023-05-23T01:53:25;23.23;;;15.75;;
51298;SDS011;37382;45.192;9.790;2023-05-23T01:55:53;21.15;;;15.85;;
51298;SDS011;37382;45.192;9.790;2023-05-23T01:58:22;25.00;;;17.40;;
51298;SDS011;37382;45.192;9.790;2023-05-23T02:00:49;22.50;;;16.45;;
51298;SDS011;37382;45.192;9.790;2023-05-23T02:03:18;21.67;;;16.65;;
51298;SDS011;37382;45.192;9.790;2023-05-23T02:05:45;19.10;;;16.27;;
51298;SDS011;37382;45.192;9.790;2023-05-23T02:08:13;24.65;;;16.02;;
51298;SDS011;37382;45.192;9.790;2023-05-23T02:10:41;30.00;;;17.92;;
51298;SDS011;37382;45.192;9.790;2023-05-23T02:13:08;24.42;;;17.27;;
51298;SDS011;37382;45.192;9.790;2023-05-23T02:15:36;24.60;;;18.65;;
51298;SDS011;37382;45.192;9.790;2023-05-23T02:18:03;22.80;;;17.10;;
51298;SDS011;37382;45.192;9.790;2023-05-23T02:20:32;22.25;;;18.35;;
51298;SDS011;37382;45.192;9.790;2023-05-23T02:23:00;26.42;;;17.83;;
51298;SDS011;37382;45.192;9.790;2023-05-23T02:25:29;25.90;;;19.42;;
51298;SDS011;37382;45.192;9.790;2023-05-23T02:27:56;25.27;;;19.20;;
51298;SDS011;37382;45.192;9.790;2023-05-23T02:30:24;35.08;;;20.45;;
51298;SDS011;37382;45.192;9.790;2023-05-23T02:32:51;29.55;;;20.60;;
51298;SDS011;37382;45.192;9.790;2023-05-23T02:35:19;26.73;;;22.60;;
51298;SDS011;37382;45.192;9.790;2023-05-23T02:37:47;30.25;;;20.48;;
51298;SDS011;37382;45.192;9.790;2023-05-23T02:40:14;35.33;;;20.63;;
51298;SDS011;37382;45.192;9.790;2023-05-23T02:42:42;31.38;;;20.58;;
51298;SDS011;37382;45.192;9.790;2023-05-23T02:45:09;33.20;;;21.83;;
51298;SDS011;37382;45.192;9.790;2023-05-23T02:47:38;31.67;;;20.63;;
51298;SDS011;37382;45.192;9.790;2023-05-23T02:50:08;29.48;;;22.35;;
51298;SDS011;37382;45.192;9.790;2023-05-23T02:52:36;25.70;;;21.60;;
51298;SDS011;37382;45.192;9.790;2023-05-23T02:55:04;28.08;;;21.05;;
51298;SDS011;37382;45.192;9.790;2023-05-23T02:57:38;30.15;;;21.38;;
51298;SDS011;37382;45.192;9.790;2023-05-23T03:00:06;28.50;;;20.83;;
51298;SDS011;37382;45.192;9.790;2023-05-23T03:02:35;27.90;;;20.55;;
51298;SDS011;37382;45.192;9.790;2023-05-23T03:05:03;29.23;;;20.90;;
51298;SDS011;37382;45.192;9.790;2023-05-23T03:07:32;27.60;;;21.92;;
51298;SDS011;37382;45.192;9.790;2023-05-23T03:10:00;27.90;;;21.95;;
51298;SDS011;37382;45.192;9.790;2023-05-23T03:12:27;29.77;;;24.25;;
51298;SDS011;37382;45.192;9.790;2023-05-23T03:14:55;27.85;;;23.25;;
51298;SDS011;37382;45.192;9.790;2023-05-23T03:17:26;28.33;;;23.17;;
51298;SDS011;37382;45.192;9.790;2023-05-23T03:19:56;31.67;;;22.63;;
51298;SDS011;37382;45.192;9.790;2023-05-23T03:22:24;30.13;;;23.48;;
51298;SDS011;37382;45.192;9.790;2023-05-23T03:24:51;30.70;;;22.77;;
51298;SDS011;37382;45.192;9.790;2023-05-23T03:27:19;28.02;;;23.60;;
51298;SDS011;37382;45.192;9.790;2023-05-23T03:29:46;34.65;;;23.17;;
51298;SDS011;37382;45.192;9.790;2023-05-23T03:32:14;26.40;;;23.20;;
51298;SDS011;37382;45.192;9.790;2023-05-23T03:34:41;34.30;;;23.65;;
51298;SDS011;37382;45.192;9.790;2023-05-23T03:37:10;34.33;;;24.90;;
51298;SDS011;37382;45.192;9.790;2023-05-23T03:39:38;36.28;;;24.25;;
51298;SDS011;37382;45.192;9.790;2023-05-23T03:42:06;27.45;;;24.50;;
51298;SDS011;37382;45.192;9.790;2023-05-23T03:44:34;34.83;;;25.50;;
51298;SDS011;37382;45.192;9.790;2023-05-23T03:47:04;31.08;;;23.42;;
51298;SDS011;37382;45.192;9.790;2023-05-23T03:49:34;32.50;;;24.13;;
51298;SDS011;37382;45.192;9.790;2023-05-23T03:52:01;29.67;;;23.65;;
51298;SDS011;37382;45.192;9.790;2023-05-23T03:54:29;34.22;;;25.48;;
51298;SDS011;37382;45.192;9.790;2023-05-23T03:56:57;28.08;;;24.20;;
51298;SDS011;37382;45.192;9.790;2023-05-23T03:59:24;29.55;;;23.10;;
51298;SDS011;37382;45.192;9.790;2023-05-23T04:01:52;35.20;;;25.17;;
51298;SDS011;37382;45.192;9.790;2023-05-23T04:04:20;28.30;;;22.98;;
51298;SDS011;37382;45.192;9.790;2023-05-23T04:06:49;32.25;;;24.73;;
51298;SDS011;37382;45.192;9.790;2023-05-23T04:09:18;28.30;;;25.17;;
51298;SDS011;37382;45.192;9.790;2023-05-23T04:11:47;39.95;;;25.45;;
51298;SDS011;37382;45.192;9.790;2023-05-23T04:14:15;34.80;;;25.55;;
51298;SDS011;37382;45.192;9.790;2023-05-23T04:16:44;33.35;;;25.38;;
51298;SDS011;37382;45.192;9.790;2023-05-23T04:19:13;29.83;;;24.75;;
51298;SDS011;37382;45.192;9.790;2023-05-23T04:21:40;30.55;;;24.27;;
51298;SDS011;37382;45.192;9.790;2023-05-23T04:24:10;28.88;;;24.58;;
51298;SDS011;37382;45.192;9.790;2023-05-23T04:26:38;37.08;;;25.48;;
51298;SDS011;37382;45.192;9.790;2023-05-23T04:29:06;31.17;;;24.52;;
51298;SDS011;37382;45.192;9.790;2023-05-23T04:31:33;33.05;;;25.70;;
51298;SDS011;37382;45.192;9.790;2023-05-23T04:34:01;39.60;;;25.25;;
51298;SDS011;37382;45.192;9.790;2023-05-23T04:36:34;33.75;;;24.10;;
51298;SDS011;37382;45.192;9.790;2023-05-23T04:39:04;35.42;;;23.58;;
51298;SDS011;37382;45.192;9.790;2023-05-23T04:41:37;28.15;;;23.70;;
51298;SDS011;37382;45.192;9.790;2023-05-23T04:44:18;33.20;;;23.42;;
51298;SDS011;37382;45.192;9.790;2023-05-23T04:47:02;34.10;;;23.10;;
51298;SDS011;37382;45.192;9.790;2023-05-23T04:49:42;34.90;;;22.75;;
51298;SDS011;37382;45.192;9.790;2023-05-23T04:52:10;30.02;;;21.83;;
51298;SDS011;37382;45.192;9.790;2023-05-23T04:54:41;33.53;;;21.63;;
51298;SDS011;37382;45.192;9.790;2023-05-23T04:57:11;33.75;;;21.45;;
51298;SDS011;37382;45.192;9.790;2023-05-23T04:59:38;24.42;;;20.83;;
51298;SDS011;37382;45.192;9.790;2023-05-23T05:02:06;34.10;;;19.40;;
51298;SDS011;37382;45.192;9.790;2023-05-23T05:04:35;26.35;;;19.83;;
51298;SDS011;37382;45.192;9.790;2023-05-23T05:07:04;38.65;;;18.88;;
51298;SDS011;37382;45.192;9.790;2023-05-23T05:09:33;24.33;;;19.50;;
51298;SDS011;37382;45.192;9.790;2023-05-23T05:12:01;27.20;;;19.75;;
51298;SDS011;37382;45.192;9.790;2023-05-23T05:14:29;22.75;;;17.67;;
51298;SDS011;37382;45.192;9.790;2023-05-23T05:16:56;26.45;;;18.17;;
51298;SDS011;37382;45.192;9.790;2023-05-23T05:19:31;23.80;;;18.50;;
51298;SDS011;37382;45.192;9.790;2023-05-23T05:21:59;23.13;;;17.30;;
51298;SDS011;37382;45.192;9.790;2023-05-23T05:24:28;22.10;;;16.27;;
51298;SDS011;37382;45.192;9.790;2023-05-23T05:26:56;21.67;;;16.80;;
51298;SDS011;37382;45.192;9.790;2023-05-23T05:29:24;22.30;;;16.08;;
51298;SDS011;37382;45.192;9.790;2023-05-23T05:31:52;19.00;;;15.93;;
51298;SDS011;37382;45.192;9.790;2023-05-23T05:34:20;23.92;;;16.45;;
51298;SDS011;37382;45.192;9.790;2023-05-23T05:36:48;21.63;;;16.13;;
51298;SDS011;37382;45.192;9.790;2023-05-23T05:39:17;21.55;;;16.50;;
51298;SDS011;37382;45.192;9.790;2023-05-23T05:41:45;23.15;;;17.05;;
51298;SDS011;37382;45.192;9.790;2023-05-23T05:44:13;20.98;;;15.80;;
51298;SDS011;37382;45.192;9.790;2023-05-23T05:46:41;23.67;;;16.90;;
51298;SDS011;37382;45.192;9.790;2023-05-23T05:49:09;20.20;;;16.17;;
51298;SDS011;37382;45.192;9.790;2023-05-23T05:51:39;23.88;;;16.15;;
51298;SDS011;37382;45.192;9.790;2023-05-23T05:54:06;30.30;;;16.98;;
51298;SDS011;37382;45.192;9.790;2023-05-23T05:56:34;28.95;;;16.88;;
51298;SDS011;37382;45.192;9.790;2023-05-23T05:59:03;23.75;;;17.65;;
51298;SDS011;37382;45.192;9.790;2023-05-23T06:01:31;33.20;;;18.83;;
51298;SDS011;37382;45.192;9.790;2023-05-23T06:04:01;21.65;;;18.55;;
51298;SDS011;37382;45.192;9.790;2023-05-23T06:06:30;27.23;;;18.48;;
51298;SDS011;37382;45.192;9.790;2023-05-23T06:08:58;29.55;;;18.77;;
51298;SDS011;37382;45.192;9.790;2023-05-23T06:11:26;27.60;;;18.42;;
51298;SDS011;37382;45.192;9.790;2023-05-23T06:13:54;26.40;;;18.25;;
51298;SDS011;37382;45.192;9.790;2023-05-23T06:16:22;26.75;;;18.92;;
51298;SDS011;37382;45.192;9.790;2023-05-23T06:18:50;21.63;;;19.15;;
51298;SDS011;37382;45.192;9.790;2023-05-23T06:21:19;20.85;;;17.75;;
51298;SDS011;37382;45.192;9.790;2023-05-23T06:23:48;28.30;;;19.13;;
51298;SDS011;37382;45.192;9.790;2023-05-23T06:26:16;26.98;;;20.00;;
51298;SDS011;37382;45.192;9.790;2023-05-23T06:28:44;31.95;;;20.88;;
51298;SDS011;37382;45.192;9.790;2023-05-23T06:31:12;29.90;;;21.42;;
51298;SDS011;37382;45.192;9.790;2023-05-23T06:33:39;26.90;;;22.08;;
51298;SDS011;37382;45.192;9.790;2023-05-23T06:36:10;27.27;;;20.75;;
51298;SDS011;37382;45.192;9.790;2023-05-23T06:38:37;31.15;;;21.23;;
51298;SDS011;37382;45.192;9.790;2023-05-23T06:41:05;26.40;;;21.25;;
51298;SDS011;37382;45.192;9.790;2023-05-23T06:43:35;26.70;;;20.85;;
51298;SDS011;37382;45.192;9.790;2023-05-23T06:46:12;29.95;;;20.55;;
51298;SDS011;37382;45.192;9.790;2023-05-23T06:48:41;24.40;;;20.38;;
51298;SDS011;37382;45.192;9.790;2023-05-23T06:51:08;26.80;;;21.77;;
51298;SDS011;37382;45.192;9.790;2023-05-23T06:53:37;26.10;;;20.77;;
51298;SDS011;37382;45.192;9.790;2023-05-23T06:56:05;29.98;;;20.27;;
51298;SDS011;37382;45.192;9.790;2023-05-23T06:58:39;23.92;;;20.48;;
51298;SDS011;37382;45.192;9.790;2023-05-23T07:01:07;26.48;;;20.70;;
51298;SDS011;37382;45.192;9.790;2023-05-23T07:03:42;30.98;;;21.60;;
51298;SDS011;37382;45.192;9.790;2023-05-23T07:06:12;32.92;;;21.95;;
51298;SDS011;37382;45.192;9.790;2023-05-23T07:08:40;25.60;;;20.00;;
51298;SDS011;37382;45.192;9.790;2023-05-23T07:11:09;27.60;;;20.77;;
51298;SDS011;37382;45.192;9.790;2023-05-23T07:13:43;25.75;;;20.98;;
51298;SDS011;37382;45.192;9.790;2023-05-23T07:16:18;25.35;;;19.40;;
51298;SDS011;37382;45.192;9.790;2023-05-23T07:18:56;25.48;;;19.83;;
51298;SDS011;37382;45.192;9.790;2023-05-23T07:21:24;23.35;;;19.25;;
51298;SDS011;37382;45.192;9.790;2023-05-23T07:23:51;24.08;;;19.48;;
51298;SDS011;37382;45.192;9.790;2023-05-23T07:26:20;24.08;;;18.80;;
51298;SDS011;37382;45.192;9.790;2023-05-23T07:28:53;24.75;;;18.75;;
51298;SDS011;37382;45.192;9.790;2023-05-23T07:31:21;23.85;;;18.67;;
51298;SDS011;37382;45.192;9.790;2023-05-23T07:33:52;30.92;;;18.88;;
51298;SDS011;37382;45.192;9.790;2023-05-23T07:36:29;33.30;;;19.25;;
51298;SDS011;37382;45.192;9.790;2023-05-23T07:39:00;26.92;;;19.20;;
51298;SDS011;37382;45.192;9.790;2023-05-23T07:41:28;26.92;;;19.05;;
51298;SDS011;37382;45.192;9.790;2023-05-23T07:43:56;27.13;;;19.58;;
51298;SDS011;37382;45.192;9.790;2023-05-23T07:46:23;27.85;;;18.73;;
51298;SDS011;37382;45.192;9.790;2023-05-23T07:48:51;25.55;;;18.77;;
51298;SDS011;37382;45.192;9.790;2023-05-23T07:51:19;23.38;;;18.73;;
51298;SDS011;37382;45.192;9.790;2023-05-23T07:53:49;29.05;;;19.80;;
51298;SDS011;37382;45.192;9.790;2023-05-23T07:56:18;25.48;;;18.73;;
51298;SDS011;37382;45.192;9.790;2023-05-23T07:58:47;29.05;;;19.77;;
51298;SDS011;37382;45.192;9.790;2023-05-23T08:01:15;30.85;;;20.80;;
51298;SDS011;37382;45.192;9.790;2023-05-23T08:03:56;27.52;;;19.52;;
51298;SDS011;37382;45.192;9.790;2023-05-23T08:06:31;33.22;;;20.10;;
51298;SDS011;37382;45.192;9.790;2023-05-23T08:09:04;29.25;;;19.25;;
51298;SDS011;37382;45.192;9.790;2023-05-23T08:11:54;26.90;;;20.30;;
51298;SDS011;37382;45.192;9.790;2023-05-23T08:14:23;33.40;;;20.13;;
51298;SDS011;37382;45.192;9.790;2023-05-23T08:17:17;27.92;;;19.95;;
51298;SDS011;37382;45.192;9.790;2023-05-23T08:19:46;31.23;;;20.73;;
51298;SDS011;37382;45.192;9.790;2023-05-23T08:22:14;36.33;;;19.90;;
51298;SDS011;37382;45.192;9.790;2023-05-23T08:24:42;37.30;;;20.45;;
51298;SDS011;37382;45.192;9.790;2023-05-23T08:27:09;27.40;;;20.15;;
51298;SDS011;37382;45.192;9.790;2023-05-23T08:29:37;33.13;;;20.27;;
51298;SDS011;37382;45.192;9.790;2023-05-23T08:32:06;30.67;;;21.42;;
51298;SDS011;37382;45.192;9.790;2023-05-23T08:34:34;29.85;;;20.80;;
51298;SDS011;37382;45.192;9.790;2023-05-23T08:37:03;23.35;;;20.20;;
51298;SDS011;37382;45.192;9.790;2023-05-23T08:39:31;26.35;;;19.45;;
51298;SDS011;37382;45.192;9.790;2023-05-23T08:42:18;22.25;;;18.13;;
51298;SDS011;37382;45.192;9.790;2023-05-23T08:44:47;23.55;;;18.55;;
51298;SDS011;37382;45.192;9.790;2023-05-23T08:47:17;31.52;;;18.77;;
51298;SDS011;37382;45.192;9.790;2023-05-23T08:49:57;23.98;;;17.73;;
51298;SDS011;37382;45.192;9.790;2023-05-23T08:52:28;29.83;;;17.13;;
51298;SDS011;37382;45.192;9.790;2023-05-23T08:55:00;27.02;;;15.55;;
51298;SDS011;37382;45.192;9.790;2023-05-23T08:57:30;24.67;;;17.95;;
51298;SDS011;37382;45.192;9.790;2023-05-23T09:00:09;22.45;;;18.35;;
51298;SDS011;37382;45.192;9.790;2023-05-23T09:02:42;27.95;;;17.38;;
51298;SDS011;37382;45.192;9.790;2023-05-23T09:05:25;27.33;;;17.80;;
51298;SDS011;37382;45.192;9.790;2023-05-23T09:07:53;31.55;;;18.85;;
51298;SDS011;37382;45.192;9.790;2023-05-23T09:10:22;25.75;;;17.05;;
51298;SDS011;37382;45.192;9.790;2023-05-23T09:12:50;24.05;;;17.25;;
51298;SDS011;37382;45.192;9.790;2023-05-23T09:15:18;27.27;;;17.38;;
51298;SDS011;37382;45.192;9.790;2023-05-23T09:17:45;24.23;;;18.25;;
51298;SDS011;37382;45.192;9.790;2023-05-23T09:20:13;23.15;;;14.93;;
51298;SDS011;37382;45.192;9.790;2023-05-23T09:22:50;19.90;;;16.35;;
51298;SDS011;37382;45.192;9.790;2023-05-23T09:25:18;19.02;;;13.65;;
51298;SDS011;37382;45.192;9.790;2023-05-23T09:27:46;18.77;;;14.95;;
51298;SDS011;37382;45.192;9.790;2023-05-23T09:30:15;26.83;;;18.48;;
51298;SDS011;37382;45.192;9.790;2023-05-23T09:32:56;21.23;;;16.90;;
51298;SDS011;37382;45.192;9.790;2023-05-23T09:35:32;26.25;;;17.90;;
51298;SDS011;37382;45.192;9.790;2023-05-23T09:37:59;27.80;;;16.38;;
51298;SDS011;37382;45.192;9.790;2023-05-23T09:40:29;20.50;;;15.68;;
51298;SDS011;37382;45.192;9.790;2023-05-23T09:43:03;26.25;;;17.10;;
51298;SDS011;37382;45.192;9.790;2023-05-23T09:45:33;29.55;;;15.80;;
51298;SDS011;37382;45.192;9.790;2023-05-23T09:48:02;23.20;;;15.93;;
51298;SDS011;37382;45.192;9.790;2023-05-23T09:50:31;30.23;;;15.98;;
51298;SDS011;37382;45.192;9.790;2023-05-23T09:53:01;20.57;;;15.17;;
51298;SDS011;37382;45.192;9.790;2023-05-23T09:55:28;19.42;;;14.05;;
51298;SDS011;37382;45.192;9.790;2023-05-23T09:57:58;18.42;;;15.13;;
51298;SDS011;37382;45.192;9.790;2023-05-23T10:00:26;19.73;;;16.67;;
51298;SDS011;37382;45.192;9.790;2023-05-23T10:02:57;18.90;;;16.90;;
51298;SDS011;37382;45.192;9.790;2023-05-23T10:05:48;22.40;;;18.27;;
51298;SDS011;37382;45.192;9.790;2023-05-23T10:08:24;30.40;;;15.57;;
51298;SDS011;37382;45.192;9.790;2023-05-23T10:13:27;21.98;;;15.43;;
51298;SDS011;37382;45.192;9.790;2023-05-23T10:15:59;19.05;;;16.05;;
51298;SDS011;37382;45.192;9.790;2023-05-23T10:18:38;24.02;;;15.82;;
51298;SDS011;37382;45.192;9.790;2023-05-23T10:21:11;26.27;;;15.25;;
51298;SDS011;37382;45.192;9.790;2023-05-23T10:23:44;18.85;;;15.23;;
51298;SDS011;37382;45.192;9.790;2023-05-23T10:26:14;25.88;;;15.50;;
51298;SDS011;37382;45.192;9.790;2023-05-23T10:28:43;27.73;;;13.13;;
51298;SDS011;37382;45.192;9.790;2023-05-23T10:31:13;16.75;;;14.13;;
51298;SDS011;37382;45.192;9.790;2023-05-23T10:33:42;22.45;;;14.18;;
51298;SDS011;37382;45.192;9.790;2023-05-23T10:36:21;20.92;;;14.43;;
51298;SDS011;37382;45.192;9.790;2023-05-23T10:38:59;20.38;;;14.02;;
51298;SDS011;37382;45.192;9.790;2023-05-23T10:44:30;30.52;;;14.25;;
51298;SDS011;37382;45.192;9.790;2023-05-23T10:49:43;24.58;;;15.80;;
51298;SDS011;37382;45.192;9.790;2023-05-23T10:52:13;23.00;;;15.00;;
51298;SDS011;37382;45.192;9.790;2023-05-23T10:57:15;16.00;;;13.50;;
51298;SDS011;37382;45.192;9.790;2023-05-23T10:59:45;20.50;;;12.23;;
51298;SDS011;37382;45.192;9.790;2023-05-23T11:02:24;16.73;;;13.20;;
51298;SDS011;37382;45.192;9.790;2023-05-23T11:10:59;15.15;;;11.30;;
51298;SDS011;37382;45.192;9.790;2023-05-23T11:16:39;17.42;;;9.88;;
51298;SDS011;37382;45.192;9.790;2023-05-23T11:21:45;14.35;;;8.50;;
51298;SDS011;37382;45.192;9.790;2023-05-23T11:24:15;13.82;;;8.27;;
51298;SDS011;37382;45.192;9.790;2023-05-23T11:26:56;13.05;;;10.60;;
51298;SDS011;37382;45.192;9.790;2023-05-23T11:29:30;15.95;;;10.07;;
51298;SDS011;37382;45.192;9.790;2023-05-23T11:31:58;13.75;;;9.60;;
51298;SDS011;37382;45.192;9.790;2023-05-23T11:34:25;16.08;;;10.40;;
51298;SDS011;37382;45.192;9.790;2023-05-23T11:36:53;10.38;;;8.95;;
51298;SDS011;37382;45.192;9.790;2023-05-23T11:39:22;11.43;;;8.85;;
51298;SDS011;37382;45.192;9.790;2023-05-23T11:41:59;11.38;;;9.20;;
51298;SDS011;37382;45.192;9.790;2023-05-23T11:44:28;15.68;;;7.60;;
51298;SDS011;37382;45.192;9.790;2023-05-23T11:49:34;15.70;;;8.93;;
51298;SDS011;37382;45.192;9.790;2023-05-23T11:52:06;10.73;;;9.73;;
51298;SDS011;37382;45.192;9.790;2023-05-23T11:54:34;19.10;;;8.95;;
51298;SDS011;37382;45.192;9.790;2023-05-23T11:57:02;11.65;;;10.18;;
51298;SDS011;37382;45.192;9.790;2023-05-23T11:59:30;15.98;;;10.85;;
51298;SDS011;37382;45.192;9.790;2023-05-23T12:01:58;17.15;;;11.35;;
51298;SDS011;37382;45.192;9.790;2023-05-23T12:04:26;15.88;;;8.95;;
51298;SDS011;37382;45.192;9.790;2023-05-23T12:06:53;15.95;;;8.82;;
51298;SDS011;37382;45.192;9.790;2023-05-23T12:09:21;13.45;;;9.02;;
51298;SDS011;37382;45.192;9.790;2023-05-23T12:11:49;15.55;;;9.50;;
51298;SDS011;37382;45.192;9.790;2023-05-23T12:14:17;9.95;;;8.82;;
51298;SDS011;37382;45.192;9.790;2023-05-23T12:16:44;12.02;;;8.95;;
51298;SDS011;37382;45.192;9.790;2023-05-23T12:19:14;13.65;;;9.88;;
51298;SDS011;37382;45.192;9.790;2023-05-23T12:21:44;12.13;;;9.05;;
51298;SDS011;37382;45.192;9.790;2023-05-23T12:24:14;17.75;;;10.00;;
51298;SDS011;37382;45.192;9.790;2023-05-23T12:29:34;11.60;;;7.32;;
51298;SDS011;37382;45.192;9.790;2023-05-23T12:32:05;13.13;;;8.60;;
51298;SDS011;37382;45.192;9.790;2023-05-23T12:34:34;9.82;;;6.55;;
51298;SDS011;37382;45.192;9.790;2023-05-23T12:37:09;8.85;;;6.40;;
51298;SDS011;37382;45.192;9.790;2023-05-23T12:39:43;14.18;;;7.20;;
51298;SDS011;37382;45.192;9.790;2023-05-23T12:42:12;17.35;;;9.10;;
51298;SDS011;37382;45.192;9.790;2023-05-23T12:44:42;10.18;;;7.43;;
51298;SDS011;37382;45.192;9.790;2023-05-23T12:47:10;13.52;;;7.20;;
51298;SDS011;37382;45.192;9.790;2023-05-23T12:49:39;9.40;;;6.10;;
51298;SDS011;37382;45.192;9.790;2023-05-23T12:52:06;14.20;;;5.70;;
51298;SDS011;37382;45.192;9.790;2023-05-23T12:54:34;13.80;;;6.38;;
51298;SDS011;37382;45.192;9.790;2023-05-23T12:57:01;8.68;;;5.45;;
51298;SDS011;37382;45.192;9.790;2023-05-23T12:59:29;9.75;;;5.28;;
51298;SDS011;37382;45.192;9.790;2023-05-23T13:01:57;8.05;;;4.57;;
51298;SDS011;37382;45.192;9.790;2023-05-23T13:04:26;7.85;;;4.63;;
51298;SDS011;37382;45.192;9.790;2023-05-23T13:06:57;6.07;;;4.68;;
51298;SDS011;37382;45.192;9.790;2023-05-23T13:09:25;14.63;;;5.60;;
51298;SDS011;37382;45.192;9.790;2023-05-23T13:11:54;11.50;;;5.40;;
51298;SDS011;37382;45.192;9.790;2023-05-23T13:14:21;5.88;;;4.80;;
51298;SDS011;37382;45.192;9.790;2023-05-23T13:16:49;8.55;;;4.93;;
51298;SDS011;37382;45.192;9.790;2023-05-23T13:19:18;9.50;;;5.28;;
51298;SDS011;37382;45.192;9.790;2023-05-23T13:21:45;9.93;;;4.30;;
51298;SDS011;37382;45.192;9.790;2023-05-23T13:24:16;10.60;;;4.60;;
51298;SDS011;37382;45.192;9.790;2023-05-23T13:26:43;11.93;;;4.57;;
51298;SDS011;37382;45.192;9.790;2023-05-23T13:29:12;9.30;;;3.92;;
51298;SDS011;37382;45.192;9.790;2023-05-23T13:31:39;6.75;;;4.13;;
51298;SDS011;37382;45.192;9.790;2023-05-23T13:34:07;14.15;;;4.20;;
51298;SDS011;37382;45.192;9.790;2023-05-23T13:36:34;11.27;;;4.50;;
51298;SDS011;37382;45.192;9.790;2023-05-23T13:39:02;8.70;;;3.92;;
51298;SDS011;37382;45.192;9.790;2023-05-23T13:41:32;7.00;;;4.28;;
51298;SDS011;37382;45.192;9.790;2023-05-23T13:44:00;7.03;;;4.47;;
51298;SDS011;37382;45.192;9.790;2023-05-23T13:46:28;16.70;;;5.63;;
51298;SDS011;37382;45.192;9.790;2023-05-23T13:48:55;12.13;;;4.53;;
51298;SDS011;37382;45.192;9.790;2023-05-23T13:51:22;9.43;;;4.90;;
51298;SDS011;37382;45.192;9.790;2023-05-23T13:53:50;7.90;;;4.93;;
51298;SDS011;37382;45.192;9.790;2023-05-23T13:56:19;6.45;;;4.45;;
51298;SDS011;37382;45.192;9.790;2023-05-23T13:58:47;6.53;;;5.03;;
51298;SDS011;37382;45.192;9.790;2023-05-23T14:01:14;9.32;;;4.93;;
51298;SDS011;37382;45.192;9.790;2023-05-23T14:03:42;7.55;;;5.43;;
51298;SDS011;37382;45.192;9.790;2023-05-23T14:06:10;7.05;;;4.72;;
51298;SDS011;37382;45.192;9.790;2023-05-23T14:08:38;12.40;;;5.15;;
51298;SDS011;37382;45.192;9.790;2023-05-23T14:11:05;11.52;;;4.82;;
51298;SDS011;37382;45.192;9.790;2023-05-23T14:13:33;10.50;;;5.95;;
51298;SDS011;37382;45.192;9.790;2023-05-23T14:16:00;6.28;;;4.82;;
51298;SDS011;37382;45.192;9.790;2023-05-23T14:18:29;5.15;;;4.65;;
51298;SDS011;37382;45.192;9.790;2023-05-23T14:20:58;9.57;;;5.63;;
51298;SDS011;37382;45.192;9.790;2023-05-23T14:23:26;13.95;;;5.63;;
51298;SDS011;37382;45.192;9.790;2023-05-23T14:25:54;11.68;;;5.13;;
51298;SDS011;37382;45.192;9.790;2023-05-23T14:28:21;8.48;;;5.60;;
51298;SDS011;37382;45.192;9.790;2023-05-23T14:30:48;8.70;;;5.28;;
51298;SDS011;37382;45.192;9.790;2023-05-23T14:33:17;5.47;;;4.88;;
51298;SDS011;37382;45.192;9.790;2023-05-23T14:35:44;7.93;;;5.50;;
51298;SDS011;37382;45.192;9.790;2023-05-23T14:38:12;14.77;;;5.05;;
51298;SDS011;37382;45.192;9.790;2023-05-23T14:40:40;7.95;;;6.15;;
51298;SDS011;37382;45.192;9.790;2023-05-23T14:43:10;9.18;;;5.10;;
51298;SDS011;37382;45.192;9.790;2023-05-23T14:45:37;10.60;;;5.03;;
51298;SDS011;37382;45.192;9.790;2023-05-23T14:48:05;10.50;;;4.57;;
51298;SDS011;37382;45.192;9.790;2023-05-23T14:50:33;11.30;;;4.45;;
51298;SDS011;37382;45.192;9.790;2023-05-23T14:53:00;10.85;;;4.55;;
51298;SDS011;37382;45.192;9.790;2023-05-23T14:55:28;16.08;;;4.68;;
51298;SDS011;37382;45.192;9.790;2023-05-23T14:57:56;7.40;;;4.90;;
51298;SDS011;37382;45.192;9.790;2023-05-23T15:00:24;9.90;;;4.75;;
51298;SDS011;37382;45.192;9.790;2023-05-23T15:02:52;10.65;;;4.55;;
51298;SDS011;37382;45.192;9.790;2023-05-23T15:05:20;11.05;;;4.88;;
51298;SDS011;37382;45.192;9.790;2023-05-23T15:07:48;8.95;;;4.28;;
51298;SDS011;37382;45.192;9.790;2023-05-23T15:10:17;11.07;;;4.82;;
51298;SDS011;37382;45.192;9.790;2023-05-23T15:12:44;18.88;;;4.63;;
51298;SDS011;37382;45.192;9.790;2023-05-23T15:15:11;10.60;;;4.95;;
51298;SDS011;37382;45.192;9.790;2023-05-23T15:17:40;10.25;;;4.50;;